Time,TemperatureF,DewpointF,PressureIn,WindDirection,WindDirectionDegrees,WindSpeedMPH,WindSpeedGustMPH,Humidity,HourlyPrecipIn,Conditions,Clouds,dailyrainin,SoftwareType,DateUTC
2013-08-06 00:00:00,52.6,50.9,29.99,NW,319,0.0,0.0,94,0.00,SKC,OVC,0.00,WeatherDisplay:10.37,2013-08-06 04:00:00,
2013-08-06 00:05:00,52.7,51.0,29.99,NW,319,0.0,0.0,94,0.00,SKC,OVC,0.00,WeatherDisplay:10.37,2013-08-06 04:05:00,
2013-08-06 00:10:00,52.7,51.0,29.99,NW,319,0.0,0.0,94,0.00,SKC,OVC,0.00,WeatherDisplay:10.37,2013-08-06 04:10:00,
2013-08-06 00:15:00,52.7,51.0,29.99,NW,319,0.0,0.0,94,0.00,SKC,OVC,0.00,WeatherDisplay:10.37,2013-08-06 04:15:00,
2013-08-06 00:20:00,52.7,51.0,29.99,NW,319,0.0,0.0,94,0.00,SKC,OVC,0.00,WeatherDisplay:10.37,2013-08-06 04:20:00,
2013-08-06 00:25:00,52.7,51.0,29.99,NW,319,0.0,0.0,94,0.00,SKC,OVC,0.00,WeatherDisplay:10.37,2013-08-06 04:25:00,
2013-08-06 00:30:00,52.7,51.0,30.00,NW,319,0.0,0.0,94,0.00,SKC,OVC,0.00,WeatherDisplay:10.37,2013-08-06 04:30:00,
2013-08-06 00:35:00,52.9,51.2,29.99,NW,319,0.0,0.0,94,0.00,SKC,OVC,0.00,WeatherDisplay:10.37,2013-08-06 04:35:00,
2013-08-06 00:40:00,53.4,51.4,30.00,NW,313,0.0,1.0,93,0.00,SKC,OVC,0.00,WeatherDisplay:10.37,2013-08-06 04:40:00,
2013-08-06 00:45:00,54.0,51.4,30.00,NW,307,0.0,2.0,91,0.00,SKC,OVC,0.00,WeatherDisplay:10.37,2013-08-06 04:45:00,
2013-08-06 00:50:00,54.5,51.6,30.00,NW,312,0.0,3.0,90,0.00,SKC,OVC,0.00,WeatherDisplay:10.37,2013-08-06 04:50:00,
2013-08-06 00:55:00,54.9,51.7,30.00,NW,309,0.0,1.0,89,0.00,SKC,OVC,0.00,WeatherDisplay:10.37,2013-08-06 04:55:00,
2013-08-06 01:00:00,55.3,51.9,30.00,NW,313,0.0,2.0,88,0.00,SKC,OVC,0.00,WeatherDisplay:10.37,2013-08-06 05:00:00,
2013-08-06 01:05:00,56.0,52.2,30.00,WNW,301,0.0,3.0,87,0.00,SKC,OVC,0.00,WeatherDisplay:10.37,2013-08-06 05:05:00,
2013-08-06 01:10:00,56.5,52.4,30.00,WNW,298,0.0,4.0,86,0.00,SKC,OVC,0.00,WeatherDisplay:10.37,2013-08-06 05:10:00,
2013-08-06 01:20:00,56.7,52.6,30.00,WNW,292,0.0,2.0,86,0.00,SKC,OVC,0.00,WeatherDisplay:10.37,2013-08-06 05:20:00,
2013-08-06 01:25:00,56.7,52.5,30.00,WNW,286,0.0,1.0,86,0.00,SKC,OVC,0.00,WeatherDisplay:10.37,2013-08-06 05:25:00,
2013-08-06 01:30:00,56.5,52.3,30.00,WNW,291,0.0,2.0,86,0.00,SKC,OVC,0.00,WeatherDisplay:10.37,2013-08-06 05:30:00,
2013-08-06 01:35:00,56.3,52.5,30.00,WNW,301,0.0,1.0,87,0.00,SKC,OVC,0.00,WeatherDisplay:10.37,2013-08-06 05:35:00,
2013-08-06 01:40:00,56.3,52.5,30.00,NW,305,0.0,1.0,87,0.00,SKC,OVC,0.00,WeatherDisplay:10.37,2013-08-06 05:40:00,
2013-08-06 01:45:00,56.2,52.4,30.00,NW,308,0.0,1.0,87,0.00,SKC,OVC,0.00,WeatherDisplay:10.37,2013-08-06 05:45:00,
2013-08-06 01:50:00,56.2,52.7,30.00,NW,309,0.0,1.0,88,0.00,SKC,OVC,0.00,WeatherDisplay:10.37,2013-08-06 05:50:00,
2013-08-06 01:55:00,56.3,52.8,30.00,NW,313,0.0,1.0,88,0.00,SKC,OVC,0.00,WeatherDisplay:10.37,2013-08-06 05:55:00,
2013-08-06 02:00:00,56.4,52.9,30.00,NW,317,0.0,3.0,88,0.00,SKC,OVC,0.00,WeatherDisplay:10.37,2013-08-06 06:00:00,
2013-08-06 02:05:00,56.5,53.0,30.00,NW,320,0.0,3.0,88,0.00,SKC,OVC,0.00,WeatherDisplay:10.37,2013-08-06 06:05:00,
2013-08-06 02:10:00,56.5,53.0,30.00,NW,319,0.0,2.0,88,0.00,SKC,OVC,0.00,WeatherDisplay:10.37,2013-08-06 06:10:00,
2013-08-06 02:15:00,56.5,53.0,30.00,NW,317,0.0,1.0,88,0.00,SKC,OVC,0.00,WeatherDisplay:10.37,2013-08-06 06:15:00,
2013-08-06 02:20:00,56.4,52.9,30.00,NW,316,0.0,1.0,88,0.00,SKC,OVC,0.00,WeatherDisplay:10.37,2013-08-06 06:20:00,
2013-08-06 02:25:00,56.2,52.7,30.00,WNW,300,0.0,1.0,88,0.00,SKC,OVC,0.00,WeatherDisplay:10.37,2013-08-06 06:25:00,
2013-08-06 02:30:00,56.1,52.9,30.00,WNW,301,0.0,1.0,89,0.00,SKC,OVC,0.00,WeatherDisplay:10.37,2013-08-06 06:30:00,
2013-08-06 02:35:00,55.9,52.7,29.99,WNW,301,0.0,1.0,89,0.00,SKC,OVC,0.00,WeatherDisplay:10.37,2013-08-06 06:35:00,
2013-08-06 02:40:00,55.7,52.8,29.99,WNW,301,0.0,0.0,90,0.00,SKC,OVC,0.00,WeatherDisplay:10.37,2013-08-06 06:40:00,
2013-08-06 02:45:00,55.5,52.6,29.99,WNW,301,0.0,0.0,90,0.00,SKC,OVC,0.00,WeatherDisplay:10.37,2013-08-06 06:45:00,
2013-08-06 02:50:00,55.2,52.6,29.99,WNW,301,0.0,0.0,91,0.00,SKC,OVC,0.00,WeatherDisplay:10.37,2013-08-06 06:50:00,
2013-08-06 02:55:00,55.1,52.5,29.99,NW,305,0.0,3.0,91,0.00,SKC,OVC,0.00,WeatherDisplay:10.37,2013-08-06 06:55:00,
2013-08-06 03:00:00,55.2,52.6,29.99,NW,315,0.0,2.0,91,0.00,SKC,OVC,0.00,WeatherDisplay:10.37,2013-08-06 07:00:00,
2013-08-06 03:05:00,55.3,52.7,29.99,NW,317,0.0,1.0,91,0.00,SKC,OVC,0.00,WeatherDisplay:10.37,2013-08-06 07:05:00,
2013-08-06 03:10:00,55.3,52.7,29.99,NW,318,0.0,0.0,91,0.00,SKC,OVC,0.00,WeatherDisplay:10.37,2013-08-06 07:10:00,
2013-08-06 03:15:00,55.2,52.6,29.99,NW,318,0.0,0.0,91,0.00,SKC,OVC,0.00,WeatherDisplay:10.37,2013-08-06 07:15:00,
2013-08-06 03:20:00,55.0,52.4,29.99,NW,318,0.0,0.0,91,0.00,SKC,OVC,0.00,WeatherDisplay:10.37,2013-08-06 07:20:00,
2013-08-06 03:25:00,54.9,52.6,29.99,NW,318,0.0,1.0,92,0.00,SKC,OVC,0.00,WeatherDisplay:10.37,2013-08-06 07:25:00,
2013-08-06 03:30:00,54.9,52.6,29.99,NW,318,0.0,0.0,92,0.00,SKC,OVC,0.00,WeatherDisplay:10.37,2013-08-06 07:30:00,
2013-08-06 03:40:00,55.0,52.7,30.00,WNW,288,0.0,1.0,92,0.00,SKC,OVC,0.00,WeatherDisplay:10.37,2013-08-06 07:40:00,
2013-08-06 03:45:00,55.0,52.4,30.00,West,260,0.0,0.0,91,0.00,SKC,OVC,0.00,WeatherDisplay:10.37,2013-08-06 07:45:00,
2013-08-06 03:50:00,54.8,52.3,30.00,West,260,0.0,0.0,91,0.00,SKC,OVC,0.00,WeatherDisplay:10.37,2013-08-06 07:50:00,
2013-08-06 04:00:00,54.4,52.1,30.00,West,261,0.0,0.0,92,0.00,SKC,OVC,0.00,WeatherDisplay:10.37,2013-08-06 08:00:00,
2013-08-06 04:05:00,54.3,52.3,30.00,West,261,0.0,0.0,93,0.00,SKC,OVC,0.00,WeatherDisplay:10.37,2013-08-06 08:05:00,
2013-08-06 04:10:00,54.2,51.9,30.00,West,261,0.0,0.0,92,0.00,SKC,OVC,0.00,WeatherDisplay:10.37,2013-08-06 08:10:00,
2013-08-06 04:15:00,53.9,52.0,30.00,West,261,0.0,0.0,93,0.00,FEW,OVC,0.00,WeatherDisplay:10.37,2013-08-06 08:15:00,
2013-08-06 04:20:00,53.8,51.8,30.00,West,261,0.0,0.0,93,0.00,FEW,OVC,0.00,WeatherDisplay:10.37,2013-08-06 08:20:00,
2013-08-06 04:25:00,53.7,51.7,30.00,West,261,0.0,0.0,93,0.00,FEW,OVC,0.00,WeatherDisplay:10.37,2013-08-06 08:25:00,
2013-08-06 04:30:00,53.6,51.7,30.00,West,261,0.0,0.0,93,0.00,FEW,OVC,0.00,WeatherDisplay:10.37,2013-08-06 08:30:00,
2013-08-06 04:35:00,53.4,51.5,30.00,West,261,0.0,0.0,93,0.00,FEW,OVC,0.00,WeatherDisplay:10.37,2013-08-06 08:35:00,
2013-08-06 04:40:00,53.3,51.6,30.00,West,261,0.0,0.0,94,0.00,FEW,OVC,0.00,WeatherDisplay:10.37,2013-08-06 08:40:00,
2013-08-06 04:45:00,53.0,51.4,30.00,West,261,0.0,0.0,94,0.00,FEW,OVC,0.00,WeatherDisplay:10.37,2013-08-06 08:45:00,
2013-08-06 04:50:00,52.7,51.0,30.00,West,261,0.0,0.0,94,0.00,FEW,OVC,0.00,WeatherDisplay:10.37,2013-08-06 08:50:00,
2013-08-06 04:55:00,52.3,50.6,30.00,West,261,0.0,0.0,94,0.00,FEW,OVC,0.00,WeatherDisplay:10.37,2013-08-06 08:55:00,
2013-08-06 05:00:00,52.1,50.4,30.01,West,261,0.0,0.0,94,0.00,FEW,OVC,0.00,WeatherDisplay:10.37,2013-08-06 09:00:00,
2013-08-06 05:05:00,51.9,50.2,30.01,West,261,0.0,0.0,94,0.00,FEW,OVC,0.00,WeatherDisplay:10.37,2013-08-06 09:05:00,
2013-08-06 05:10:00,51.8,50.4,30.01,West,261,0.0,0.0,95,0.00,FEW,OVC,0.00,WeatherDisplay:10.37,2013-08-06 09:10:00,
2013-08-06 05:15:00,51.7,50.3,30.01,West,261,0.0,0.0,95,0.00,SCT,OVC,0.00,WeatherDisplay:10.37,2013-08-06 09:15:00,
2013-08-06 05:20:00,51.6,50.2,30.01,West,261,0.0,0.0,95,0.00,SCT,OVC,0.00,WeatherDisplay:10.37,2013-08-06 09:20:00,
2013-08-06 05:25:00,51.4,50.0,30.01,West,261,0.0,0.0,95,0.00,SCT,OVC,0.00,WeatherDisplay:10.37,2013-08-06 09:25:00,
2013-08-06 05:30:00,51.5,50.1,30.01,West,261,0.0,0.0,95,0.00,SCT,OVC,0.00,WeatherDisplay:10.37,2013-08-06 09:30:00,
2013-08-06 05:35:00,51.4,50.0,30.01,West,261,0.0,0.0,95,0.00,SCT,OVC,0.00,WeatherDisplay:10.37,2013-08-06 09:35:00,
2013-08-06 05:40:00,51.4,50.0,30.01,West,261,0.0,0.0,95,0.00,SCT,OVC,0.00,WeatherDisplay:10.37,2013-08-06 09:40:00,
2013-08-06 05:45:00,51.4,50.0,30.01,West,261,0.0,0.0,95,0.00,SCT,OVC,0.00,WeatherDisplay:10.37,2013-08-06 09:45:00,
2013-08-06 05:50:00,51.5,50.4,30.02,West,261,0.0,0.0,96,0.00,SCT,OVC,0.00,WeatherDisplay:10.37,2013-08-06 09:50:00,
2013-08-06 05:55:00,51.6,50.5,30.02,West,261,0.0,0.0,96,0.00,SCT,OVC,0.00,WeatherDisplay:10.37,2013-08-06 09:55:00,
2013-08-06 06:00:00,51.7,50.6,30.02,West,261,0.0,0.0,96,0.00,SCT,OVC,0.00,WeatherDisplay:10.37,2013-08-06 10:00:00,
2013-08-06 06:05:00,51.8,50.7,30.02,West,261,0.0,0.0,96,0.00,SCT,OVC,0.00,WeatherDisplay:10.37,2013-08-06 10:05:00,
2013-08-06 06:10:00,52.0,50.9,30.02,West,261,0.0,0.0,96,0.00,SCT,OVC,0.00,WeatherDisplay:10.37,2013-08-06 10:10:00,
2013-08-06 06:15:00,52.2,51.1,30.02,West,261,0.0,0.0,96,0.00,BKN,OVC,0.00,WeatherDisplay:10.37,2013-08-06 10:15:00,
2013-08-06 06:20:00,52.3,51.2,30.02,West,261,0.0,0.0,96,0.00,BKN,OVC,0.00,WeatherDisplay:10.37,2013-08-06 10:20:00,
2013-08-06 06:25:00,52.4,51.3,30.03,West,261,0.0,0.0,96,0.00,BKN,OVC,0.00,WeatherDisplay:10.37,2013-08-06 10:25:00,
2013-08-06 06:30:00,52.5,51.4,30.03,West,261,0.0,0.0,96,0.00,BKN,OVC,0.00,WeatherDisplay:10.37,2013-08-06 10:30:00,
2013-08-06 06:35:00,52.7,51.6,30.03,West,261,0.0,0.0,96,0.00,BKN,OVC,0.00,WeatherDisplay:10.37,2013-08-06 10:35:00,
2013-08-06 06:40:00,53.0,51.9,30.03,West,261,0.0,0.0,96,0.00,BKN,OVC,0.00,WeatherDisplay:10.37,2013-08-06 10:40:00,
2013-08-06 06:45:00,53.4,52.3,30.03,West,261,0.0,0.0,96,0.00,BKN,OVC,0.00,WeatherDisplay:10.37,2013-08-06 10:45:00,
2013-08-06 06:50:00,53.7,52.6,30.03,West,261,0.0,0.0,96,0.00,BKN,OVC,0.00,WeatherDisplay:10.37,2013-08-06 10:50:00,
2013-08-06 06:55:00,53.9,52.8,30.03,West,261,0.0,0.0,96,0.00,BKN,OVC,0.00,WeatherDisplay:10.37,2013-08-06 10:55:00,
2013-08-06 07:00:00,54.1,52.9,30.03,West,261,0.0,0.0,96,0.00,BKN,OVC,0.00,WeatherDisplay:10.37,2013-08-06 11:00:00,
2013-08-06 07:05:00,54.3,53.2,30.03,West,261,0.0,0.0,96,0.00,BKN,OVC,0.00,WeatherDisplay:10.37,2013-08-06 11:05:00,
2013-08-06 07:10:00,54.4,53.3,30.04,West,261,0.0,0.0,96,0.00,BKN,OVC,0.00,WeatherDisplay:10.37,2013-08-06 11:10:00,
2013-08-06 07:15:00,54.9,53.8,30.04,West,261,0.0,0.0,96,0.00,BKN,OVC,0.00,WeatherDisplay:10.37,2013-08-06 11:15:00,
2013-08-06 07:20:00,55.6,54.5,30.04,West,261,0.0,0.0,96,0.00,BKN,OVC,0.00,WeatherDisplay:10.37,2013-08-06 11:20:00,
2013-08-06 07:25:00,56.4,55.0,30.04,West,261,0.0,1.0,95,0.00,BKN,OVC,0.00,WeatherDisplay:10.37,2013-08-06 11:25:00,
2013-08-06 07:30:00,57.0,55.3,30.04,WSW,257,0.0,3.0,94,0.00,BKN,OVC,0.00,WeatherDisplay:10.37,2013-08-06 11:30:00,
2013-08-06 07:35:00,57.4,55.1,30.04,SW,236,0.0,2.0,92,0.00,BKN,OVC,0.00,WeatherDisplay:10.37,2013-08-06 11:35:00,
2013-08-06 07:40:00,57.7,55.1,30.05,WSW,239,0.0,1.0,91,0.00,BKN,OVC,0.00,WeatherDisplay:10.37,2013-08-06 11:40:00,
2013-08-06 07:45:00,58.0,55.3,30.04,WSW,250,0.0,0.0,91,0.00,BKN,OVC,0.00,WeatherDisplay:10.37,2013-08-06 11:45:00,
2013-08-06 07:50:00,58.6,55.6,30.04,WSW,249,1.0,4.0,90,0.00,BKN,OVC,0.00,WeatherDisplay:10.37,2013-08-06 11:50:00,
2013-08-06 07:55:00,59.2,56.0,30.04,WSW,249,0.0,3.0,89,0.00,BKN,OVC,0.00,WeatherDisplay:10.37,2013-08-06 11:55:00,
2013-08-06 08:00:00,59.9,56.3,30.04,WSW,258,0.0,4.0,88,0.00,BKN,OVC,0.00,WeatherDisplay:10.37,2013-08-06 12:00:00,
2013-08-06 08:05:00,60.4,56.2,30.05,West,259,0.0,3.0,86,0.00,BKN,OVC,0.00,WeatherDisplay:10.37,2013-08-06 12:05:00,
2013-08-06 08:10:00,61.0,56.8,30.05,WSW,251,1.0,6.0,86,0.00,BKN,OVC,0.00,WeatherDisplay:10.37,2013-08-06 12:10:00,
2013-08-06 08:15:00,61.6,57.0,30.05,West,272,0.0,6.0,85,0.00,BKN,OVC,0.00,WeatherDisplay:10.37,2013-08-06 12:15:00,
2013-08-06 08:20:00,62.2,57.3,30.05,West,281,1.0,4.0,84,0.00,BKN,OVC,0.00,WeatherDisplay:10.37,2013-08-06 12:20:00,
2013-08-06 08:25:00,62.9,57.3,30.05,West,260,1.0,6.0,82,0.00,BKN,OVC,0.00,WeatherDisplay:10.37,2013-08-06 12:25:00,
2013-08-06 08:30:00,63.2,57.2,30.05,West,261,1.0,7.0,81,0.00,BKN,OVC,0.00,WeatherDisplay:10.37,2013-08-06 12:30:00,
2013-08-06 08:35:00,63.5,56.9,30.05,West,261,1.0,7.0,79,0.00,BKN,OVC,0.00,WeatherDisplay:10.37,2013-08-06 12:35:00,
2013-08-06 08:40:00,63.9,57.6,30.05,WNW,282,2.0,6.0,80,0.00,BKN,OVC,0.00,WeatherDisplay:10.37,2013-08-06 12:40:00,
2013-08-06 08:45:00,64.2,57.5,30.05,NW,306,1.0,5.0,79,0.00,BKN,OVC,0.00,WeatherDisplay:10.37,2013-08-06 12:45:00,
2013-08-06 08:50:00,64.7,58.0,30.05,WNW,299,0.0,3.0,79,0.00,BKN,OVC,0.00,WeatherDisplay:10.37,2013-08-06 12:50:00,
2013-08-06 08:55:00,65.2,58.1,30.05,WNW,282,1.0,5.0,78,0.00,BKN,OVC,0.00,WeatherDisplay:10.37,2013-08-06 12:55:00,
2013-08-06 09:00:00,65.4,58.0,30.05,WSW,254,1.0,7.0,77,0.00,BKN,OVC,0.00,WeatherDisplay:10.37,2013-08-06 13:00:00,
2013-08-06 09:05:00,65.7,58.3,30.05,WSW,258,0.0,4.0,77,0.00,BKN,OVC,0.00,WeatherDisplay:10.37,2013-08-06 13:05:00,
2013-08-06 09:10:00,66.3,58.1,30.05,West,270,1.0,5.0,75,0.00,BKN,OVC,0.00,WeatherDisplay:10.37,2013-08-06 13:10:00,
2013-08-06 09:15:00,66.6,58.4,30.05,SW,225,0.0,3.0,75,0.00,BKN,OVC,0.00,WeatherDisplay:10.37,2013-08-06 13:15:00,
2013-08-06 09:20:00,67.2,58.6,30.05,SW,235,1.0,3.0,74,0.00,BKN,OVC,0.00,WeatherDisplay:10.37,2013-08-06 13:20:00,
2013-08-06 09:25:00,67.7,59.1,30.05,WSW,238,0.0,3.0,74,0.00,BKN,OVC,0.00,WeatherDisplay:10.37,2013-08-06 13:25:00,
2013-08-06 09:30:00,67.9,59.6,30.05,WNW,283,0.0,4.0,75,0.00,BKN,OVC,0.00,WeatherDisplay:10.37,2013-08-06 13:30:00,
2013-08-06 09:35:00,68.5,59.9,30.05,West,278,0.0,1.0,74,0.00,BKN,OVC,0.00,WeatherDisplay:10.37,2013-08-06 13:35:00,
2013-08-06 09:40:00,68.6,58.4,30.05,South,173,1.0,3.0,70,0.00,BKN,OVC,0.00,WeatherDisplay:10.37,2013-08-06 13:40:00,
2013-08-06 09:45:00,69.1,59.3,30.05,WSW,238,1.0,5.0,71,0.00,BKN,OVC,0.00,WeatherDisplay:10.37,2013-08-06 13:45:00,
2013-08-06 09:50:00,68.8,59.0,30.05,West,266,0.0,3.0,71,0.00,BKN,OVC,0.00,WeatherDisplay:10.37,2013-08-06 13:50:00,
2013-08-06 09:55:00,69.2,59.0,30.05,WSW,245,1.0,3.0,70,0.00,BKN,OVC,0.00,WeatherDisplay:10.37,2013-08-06 13:55:00,
2013-08-06 10:00:00,68.3,58.1,30.05,SW,230,1.0,3.0,70,0.00,BKN,OVC,0.00,WeatherDisplay:10.37,2013-08-06 14:00:00,
2013-08-06 10:05:00,67.8,58.4,30.05,West,260,0.0,4.0,72,0.00,BKN,OVC,0.00,WeatherDisplay:10.37,2013-08-06 14:05:00,
2013-08-06 10:10:00,68.5,57.9,30.06,WNW,303,1.0,4.0,69,0.00,BKN,OVC,0.00,WeatherDisplay:10.37,2013-08-06 14:10:00,
2013-08-06 10:15:00,69.3,58.7,30.05,WNW,291,0.0,5.0,69,0.00,BKN,OVC,0.00,WeatherDisplay:10.37,2013-08-06 14:15:00,
2013-08-06 10:20:00,70.6,59.1,30.05,West,279,0.0,3.0,67,0.00,BKN,OVC,0.00,WeatherDisplay:10.37,2013-08-06 14:20:00,
2013-08-06 10:25:00,70.9,58.5,30.05,SW,223,0.0,3.0,65,0.00,SCT,OVC,0.00,WeatherDisplay:10.37,2013-08-06 14:25:00,
2013-08-06 10:30:00,71.0,59.5,30.06,SW,231,1.0,5.0,67,0.00,SCT,OVC,0.00,WeatherDisplay:10.37,2013-08-06 14:30:00,
2013-08-06 10:35:00,70.8,59.7,30.06,SW,231,0.0,3.0,68,0.00,SCT,OVC,0.00,WeatherDisplay:10.37,2013-08-06 14:35:00,
2013-08-06 10:40:00,70.9,59.8,30.06,SSW,211,0.0,2.0,68,0.00,SCT,OVC,0.00,WeatherDisplay:10.37,2013-08-06 14:40:00,
2013-08-06 10:45:00,71.0,60.4,30.06,SSE,154,0.0,1.0,69,0.00,SCT,OVC,0.00,WeatherDisplay:10.37,2013-08-06 14:45:00,
2013-08-06 10:50:00,70.9,59.4,30.06,SSE,167,0.0,1.0,67,0.00,SCT,OVC,0.00,WeatherDisplay:10.37,2013-08-06 14:50:00,
2013-08-06 10:55:00,71.0,60.3,30.06,SSW,193,0.0,5.0,69,0.00,SCT,OVC,0.00,WeatherDisplay:10.37,2013-08-06 14:55:00,
2013-08-06 11:00:00,71.0,59.1,30.06,SW,230,1.0,5.0,66,0.00,SCT,OVC,0.00,WeatherDisplay:10.37,2013-08-06 15:00:00,
2013-08-06 11:05:00,71.6,59.2,30.06,West,265,1.0,5.0,65,0.00,SCT,OVC,0.00,WeatherDisplay:10.37,2013-08-06 15:05:00,
2013-08-06 11:10:00,72.3,59.4,30.06,West,267,1.0,6.0,64,0.00,SCT,OVC,0.00,WeatherDisplay:10.37,2013-08-06 15:10:00,
2013-08-06 11:15:00,72.7,60.2,30.06,WNW,288,0.0,3.0,65,0.00,BKN,OVC,0.00,WeatherDisplay:10.37,2013-08-06 15:15:00,
2013-08-06 11:20:00,72.5,60.5,30.05,SSW,209,0.0,5.0,66,0.00,BKN,OVC,0.00,WeatherDisplay:10.37,2013-08-06 15:20:00,
2013-08-06 11:25:00,73.0,61.0,30.05,South,177,0.0,3.0,66,0.00,BKN,OVC,0.00,WeatherDisplay:10.37,2013-08-06 15:25:00,
2013-08-06 11:30:00,73.2,61.6,30.05,SE,131,0.0,0.0,67,0.00,BKN,OVC,0.00,WeatherDisplay:10.37,2013-08-06 15:30:00,
2013-08-06 11:35:00,73.1,61.1,30.05,SSE,167,0.0,3.0,66,0.00,BKN,OVC,0.00,WeatherDisplay:10.37,2013-08-06 15:35:00,
2013-08-06 11:40:00,73.1,60.2,30.05,SE,130,0.0,1.0,64,0.00,BKN,OVC,0.00,WeatherDisplay:10.37,2013-08-06 15:40:00,
2013-08-06 11:45:00,73.3,60.8,30.05,South,175,0.0,5.0,65,0.00,BKN,OVC,0.00,WeatherDisplay:10.37,2013-08-06 15:45:00,
2013-08-06 11:50:00,73.5,61.4,30.05,South,185,0.0,1.0,66,0.00,BKN,OVC,0.00,WeatherDisplay:10.37,2013-08-06 15:50:00,
2013-08-06 11:55:00,73.6,60.2,30.05,ENE,67,0.0,3.0,63,0.00,BKN,OVC,0.00,WeatherDisplay:10.37,2013-08-06 15:55:00,
2013-08-06 12:00:00,73.9,61.0,30.05,South,176,1.0,7.0,64,0.00,BKN,OVC,0.00,WeatherDisplay:10.37,2013-08-06 16:00:00,
2013-08-06 12:05:00,73.9,59.6,30.05,SSW,202,0.0,7.0,61,0.00,BKN,OVC,0.00,WeatherDisplay:10.37,2013-08-06 16:05:00,
2013-08-06 12:10:00,73.7,58.9,30.05,SW,228,3.0,6.0,60,0.00,BKN,OVC,0.00,WeatherDisplay:10.37,2013-08-06 16:10:00,
2013-08-06 12:15:00,73.7,60.8,30.05,SW,216,0.0,5.0,64,0.00,BKN,OVC,0.00,WeatherDisplay:10.37,2013-08-06 16:15:00,
2013-08-06 12:20:00,74.7,61.7,30.05,South,172,0.0,5.0,64,0.00,BKN,OVC,0.00,WeatherDisplay:10.37,2013-08-06 16:20:00,
2013-08-06 12:25:00,74.4,61.0,30.05,SSE,159,1.0,4.0,63,0.00,BKN,OVC,0.00,WeatherDisplay:10.37,2013-08-06 16:25:00,
2013-08-06 12:30:00,74.6,60.2,30.05,South,188,1.0,3.0,61,0.00,BKN,OVC,0.00,WeatherDisplay:10.37,2013-08-06 16:30:00,
2013-08-06 12:35:00,74.5,60.6,30.05,South,170,0.0,7.0,62,0.00,BKN,OVC,0.00,WeatherDisplay:10.37,2013-08-06 16:35:00,
2013-08-06 12:40:00,74.1,60.2,30.05,WSW,243,2.0,7.0,62,0.00,BKN,OVC,0.00,WeatherDisplay:10.37,2013-08-06 16:40:00,
2013-08-06 12:50:00,74.3,59.5,30.05,SSW,211,3.0,7.0,60,0.00,BKN,OVC,0.00,WeatherDisplay:10.37,2013-08-06 16:50:00,
2013-08-06 12:55:00,74.0,59.7,30.05,WSW,239,1.0,10.0,61,0.00,BKN,OVC,0.00,WeatherDisplay:10.37,2013-08-06 16:55:00,
2013-08-06 13:00:00,74.0,61.0,30.04,SW,231,1.0,3.0,64,0.00,BKN,OVC,0.00,WeatherDisplay:10.37,2013-08-06 17:00:00,
2013-08-06 13:05:00,74.5,61.5,30.04,SSE,153,0.0,2.0,64,0.00,BKN,OVC,0.00,WeatherDisplay:10.37,2013-08-06 17:05:00,
2013-08-06 13:10:00,75.4,63.2,30.04,South,169,1.0,5.0,66,0.00,BKN,OVC,0.00,WeatherDisplay:10.37,2013-08-06 17:10:00,
2013-08-06 13:15:00,75.3,61.8,30.04,SSE,157,0.0,3.0,63,0.00,SCT,OVC,0.00,WeatherDisplay:10.37,2013-08-06 17:15:00,
2013-08-06 13:20:00,75.2,60.8,30.04,South,170,0.0,3.0,61,0.00,SCT,OVC,0.00,WeatherDisplay:10.37,2013-08-06 17:20:00,
2013-08-06 13:25:00,75.8,60.4,30.04,SSW,194,0.0,3.0,59,0.00,SCT,OVC,0.00,WeatherDisplay:10.37,2013-08-06 17:25:00,
2013-08-06 13:30:00,74.7,60.4,30.03,ESE,122,0.0,3.0,61,0.00,SCT,OVC,0.00,WeatherDisplay:10.37,2013-08-06 17:30:00,
2013-08-06 13:35:00,75.9,60.6,30.04,SSE,155,0.0,5.0,59,0.00,SCT,OVC,0.00,WeatherDisplay:10.37,2013-08-06 17:35:00,
2013-08-06 13:40:00,75.5,60.1,30.04,SSW,200,2.0,5.0,59,0.00,SCT,OVC,0.00,WeatherDisplay:10.37,2013-08-06 17:40:00,
2013-08-06 13:45:00,75.7,59.9,30.04,SSW,203,1.0,7.0,58,0.00,SCT,OVC,0.00,WeatherDisplay:10.37,2013-08-06 17:45:00,
2013-08-06 13:50:00,76.0,60.2,30.03,South,187,1.0,10.0,58,0.00,SCT,OVC,0.00,WeatherDisplay:10.37,2013-08-06 17:50:00,
2013-08-06 13:55:00,76.5,59.1,30.04,SW,227,2.0,7.0,55,0.00,SCT,OVC,0.00,WeatherDisplay:10.37,2013-08-06 17:55:00,
2013-08-06 14:00:00,76.4,59.0,30.04,SSW,210,2.0,7.0,55,0.00,SCT,OVC,0.00,WeatherDisplay:10.37,2013-08-06 18:00:00,
2013-08-06 14:05:00,76.0,59.2,30.03,SSW,213,1.0,4.0,56,0.00,SCT,OVC,0.00,WeatherDisplay:10.37,2013-08-06 18:05:00,
2013-08-06 14:10:00,75.0,59.2,30.03,SW,223,0.0,3.0,58,0.00,SCT,OVC,0.00,WeatherDisplay:10.37,2013-08-06 18:10:00,
2013-08-06 14:15:00,75.2,58.4,30.03,SSE,158,1.0,4.0,56,0.00,BKN,OVC,0.00,WeatherDisplay:10.37,2013-08-06 18:15:00,
2013-08-06 14:20:00,76.2,58.9,30.03,SSW,200,0.0,4.0,55,0.00,BKN,OVC,0.00,WeatherDisplay:10.37,2013-08-06 18:20:00,
2013-08-06 14:30:00,75.8,58.5,30.04,ESE,119,0.0,4.0,55,0.00,BKN,OVC,0.00,WeatherDisplay:10.37,2013-08-06 18:30:00,
2013-08-06 14:35:00,74.5,58.3,30.04,SE,134,0.0,3.0,57,0.00,BKN,OVC,0.00,WeatherDisplay:10.37,2013-08-06 18:35:00,
2013-08-06 14:40:00,75.4,59.6,30.04,SSE,151,1.0,10.0,58,0.00,BKN,OVC,0.00,WeatherDisplay:10.37,2013-08-06 18:40:00,
2013-08-06 14:45:00,77.4,60.0,30.04,South,186,1.0,3.0,55,0.00,BKN,OVC,0.00,WeatherDisplay:10.37,2013-08-06 18:45:00,
2013-08-06 14:50:00,75.9,57.5,30.04,SE,139,0.0,4.0,53,0.00,BKN,OVC,0.00,WeatherDisplay:10.37,2013-08-06 18:50:00,
2013-08-06 14:55:00,74.8,58.6,30.04,SSW,209,0.0,5.0,57,0.00,BKN,OVC,0.00,WeatherDisplay:10.37,2013-08-06 18:55:00,
2013-08-06 15:00:00,76.3,57.3,30.04,WNW,283,0.0,4.0,52,0.00,BKN,OVC,0.00,WeatherDisplay:10.37,2013-08-06 19:00:00,
2013-08-06 15:05:00,75.0,57.7,30.04,SW,230,0.0,7.0,55,0.00,BKN,OVC,0.00,WeatherDisplay:10.37,2013-08-06 19:05:00,
2013-08-06 15:10:00,75.4,57.1,30.05,SW,226,0.0,7.0,53,0.00,BKN,OVC,0.00,WeatherDisplay:10.37,2013-08-06 19:10:00,
2013-08-06 15:20:00,74.1,59.4,30.04,WSW,239,0.0,2.0,60,0.00,BKN,OVC,0.00,WeatherDisplay:10.37,2013-08-06 19:20:00,
2013-08-06 15:25:00,74.2,58.0,30.04,ESE,120,0.0,3.0,57,0.00,BKN,OVC,0.00,WeatherDisplay:10.37,2013-08-06 19:25:00,
2013-08-06 15:30:00,74.8,56.5,30.05,SE,143,0.0,4.0,53,0.00,BKN,OVC,0.00,WeatherDisplay:10.37,2013-08-06 19:30:00,
2013-08-06 15:35:00,74.7,55.9,30.05,ESE,116,0.0,1.0,52,0.00,BKN,OVC,0.00,WeatherDisplay:10.37,2013-08-06 19:35:00,
2013-08-06 15:40:00,75.1,56.8,30.05,SE,128,0.0,4.0,53,0.00,BKN,OVC,0.00,WeatherDisplay:10.37,2013-08-06 19:40:00,
2013-08-06 15:45:00,75.4,55.4,30.05,South,191,0.0,3.0,50,0.00,BKN,OVC,0.00,WeatherDisplay:10.37,2013-08-06 19:45:00,
2013-08-06 15:50:00,76.3,56.8,30.05,ESE,123,0.0,3.0,51,0.00,BKN,OVC,0.00,WeatherDisplay:10.37,2013-08-06 19:50:00,
2013-08-06 15:55:00,76.3,56.8,30.05,SE,135,0.0,3.0,51,0.00,BKN,OVC,0.00,WeatherDisplay:10.37,2013-08-06 19:55:00,
2013-08-06 16:00:00,76.1,57.2,30.05,SE,134,0.0,3.0,52,0.00,BKN,OVC,0.00,WeatherDisplay:10.37,2013-08-06 20:00:00,
2013-08-06 16:05:00,75.6,56.2,30.05,SE,134,1.0,6.0,51,0.00,BKN,OVC,0.00,WeatherDisplay:10.37,2013-08-06 20:05:00,
2013-08-06 16:10:00,75.2,56.4,30.05,SSE,153,0.0,1.0,52,0.00,BKN,OVC,0.00,WeatherDisplay:10.37,2013-08-06 20:10:00,
2013-08-06 16:15:00,75.4,57.1,30.05,South,170,0.0,3.0,53,0.00,BKN,OVC,0.00,WeatherDisplay:10.37,2013-08-06 20:15:00,
2013-08-06 16:20:00,75.1,56.2,30.05,South,188,0.0,3.0,52,0.00,BKN,OVC,0.00,WeatherDisplay:10.37,2013-08-06 20:20:00,
2013-08-06 16:25:00,76.0,55.5,30.05,SSW,197,2.0,7.0,49,0.00,BKN,OVC,0.00,WeatherDisplay:10.37,2013-08-06 20:25:00,
2013-08-06 16:30:00,76.6,58.2,30.04,WSW,247,0.0,2.0,53,0.00,BKN,OVC,0.00,WeatherDisplay:10.37,2013-08-06 20:30:00,
2013-08-06 16:35:00,76.1,58.2,30.04,West,270,0.0,1.0,54,0.00,BKN,OVC,0.00,WeatherDisplay:10.37,2013-08-06 20:35:00,
2013-08-06 16:40:00,75.0,57.2,30.04,East,93,0.0,1.0,54,0.00,BKN,OVC,0.00,WeatherDisplay:10.37,2013-08-06 20:40:00,
2013-08-06 16:45:00,75.2,57.4,30.04,East,95,0.0,1.0,54,0.00,BKN,OVC,0.00,WeatherDisplay:10.37,2013-08-06 20:45:00,
2013-08-06 16:50:00,75.2,55.3,30.04,SSW,200,1.0,7.0,50,0.00,BKN,OVC,0.00,WeatherDisplay:10.37,2013-08-06 20:50:00,
2013-08-06 16:55:00,74.9,57.2,30.04,SW,227,0.0,2.0,54,0.00,BKN,OVC,0.00,WeatherDisplay:10.37,2013-08-06 20:55:00,
2013-08-06 17:00:00,74.8,57.0,30.04,SW,225,0.0,5.0,54,0.00,BKN,OVC,0.00,WeatherDisplay:10.37,2013-08-06 21:00:00,
2013-08-06 17:05:00,75.5,55.5,30.04,SSW,202,0.0,5.0,50,0.00,BKN,OVC,0.00,WeatherDisplay:10.37,2013-08-06 21:05:00,
2013-08-06 17:10:00,75.6,55.6,30.05,SSE,157,0.0,2.0,50,0.00,BKN,OVC,0.00,WeatherDisplay:10.37,2013-08-06 21:10:00,
2013-08-06 17:15:00,75.3,56.5,30.05,SE,129,0.0,3.0,52,0.00,SCT,OVC,0.00,WeatherDisplay:10.37,2013-08-06 21:15:00,
2013-08-06 17:20:00,75.0,55.1,30.05,SE,131,0.0,1.0,50,0.00,SCT,OVC,0.00,WeatherDisplay:10.37,2013-08-06 21:20:00,
2013-08-06 17:25:00,74.9,55.0,30.05,ESE,103,0.0,2.0,50,0.00,SCT,OVC,0.00,WeatherDisplay:10.37,2013-08-06 21:25:00,
2013-08-06 17:30:00,74.8,54.4,30.04,South,171,0.0,0.0,49,0.00,SCT,OVC,0.00,WeatherDisplay:10.37,2013-08-06 21:30:00,
2013-08-06 17:35:00,74.3,52.8,30.04,SSE,152,0.0,4.0,47,0.00,SCT,OVC,0.00,WeatherDisplay:10.37,2013-08-06 21:35:00,
2013-08-06 17:40:00,75.5,53.3,30.05,South,178,0.0,4.0,46,0.00,SCT,OVC,0.00,WeatherDisplay:10.37,2013-08-06 21:40:00,
2013-08-06 17:45:00,75.0,54.0,30.05,SW,218,0.0,2.0,48,0.00,SCT,OVC,0.00,WeatherDisplay:10.37,2013-08-06 21:45:00,
2013-08-06 17:50:00,74.4,53.4,30.05,East,99,0.0,2.0,48,0.00,SCT,OVC,0.00,WeatherDisplay:10.37,2013-08-06 21:50:00,
2013-08-06 17:55:00,74.5,53.5,30.05,East,87,0.0,1.0,48,0.00,SCT,OVC,0.00,WeatherDisplay:10.37,2013-08-06 21:55:00,
2013-08-06 18:00:00,74.7,51.3,30.05,ESE,109,0.0,3.0,44,0.00,SCT,OVC,0.00,WeatherDisplay:10.37,2013-08-06 22:00:00,
2013-08-06 18:05:00,74.1,51.4,30.04,East,101,0.0,1.0,45,0.00,SCT,OVC,0.00,WeatherDisplay:10.37,2013-08-06 22:05:00,
2013-08-06 18:10:00,74.0,52.5,30.04,SE,134,0.0,1.0,47,0.00,SCT,OVC,0.00,WeatherDisplay:10.37,2013-08-06 22:10:00,
2013-08-06 18:15:00,73.8,50.5,30.04,WSW,246,1.0,4.0,44,0.00,SCT,OVC,0.00,WeatherDisplay:10.37,2013-08-06 22:15:00,
2013-08-06 18:25:00,73.2,52.3,30.04,SSW,195,0.0,1.0,48,0.00,SCT,OVC,0.00,WeatherDisplay:10.37,2013-08-06 22:25:00,
2013-08-06 18:35:00,72.7,52.5,30.04,SSE,147,0.0,0.0,49,0.00,SCT,OVC,0.00,WeatherDisplay:10.37,2013-08-06 22:35:00,
2013-08-06 18:40:00,72.4,52.2,30.04,SSE,163,0.0,0.0,49,0.00,SCT,OVC,0.00,WeatherDisplay:10.37,2013-08-06 22:40:00,
2013-08-06 18:45:00,72.3,52.6,30.04,South,185,0.0,0.0,50,0.00,SCT,OVC,0.00,WeatherDisplay:10.37,2013-08-06 22:45:00,
2013-08-06 18:50:00,72.0,53.9,30.04,South,173,0.0,0.0,53,0.00,SCT,OVC,0.00,WeatherDisplay:10.37,2013-08-06 22:50:00,
2013-08-06 18:55:00,71.8,54.2,30.04,SE,137,0.0,0.0,54,0.00,SCT,OVC,0.00,WeatherDisplay:10.37,2013-08-06 22:55:00,
2013-08-06 19:00:00,71.6,53.0,30.04,ESE,119,0.0,0.0,52,0.00,SCT,OVC,0.00,WeatherDisplay:10.37,2013-08-06 23:00:00,
2013-08-06 19:05:00,71.5,53.5,30.04,ESE,119,0.0,0.0,53,0.00,SCT,OVC,0.00,WeatherDisplay:10.37,2013-08-06 23:05:00,
2013-08-06 19:10:00,71.2,53.7,30.04,ESE,119,0.0,0.0,54,0.00,SCT,OVC,0.00,WeatherDisplay:10.37,2013-08-06 23:10:00,
2013-08-06 19:20:00,70.9,54.9,30.04,ESE,122,0.0,0.0,57,0.00,FEW,OVC,0.00,WeatherDisplay:10.37,2013-08-06 23:20:00,
2013-08-06 19:25:00,70.6,54.1,30.04,ESE,122,0.0,0.0,56,0.00,FEW,OVC,0.00,WeatherDisplay:10.37,2013-08-06 23:25:00,
2013-08-06 19:30:00,70.1,55.6,30.04,ESE,122,0.0,0.0,60,0.00,FEW,OVC,0.00,WeatherDisplay:10.37,2013-08-06 23:30:00,
2013-08-06 19:40:00,69.0,56.3,30.04,ESE,122,0.0,0.0,64,0.00,FEW,OVC,0.00,WeatherDisplay:10.37,2013-08-06 23:40:00,
2013-08-06 19:45:00,68.3,56.5,30.04,ESE,122,0.0,0.0,66,0.00,FEW,OVC,0.00,WeatherDisplay:10.37,2013-08-06 23:45:00,
2013-08-06 19:50:00,67.7,57.5,30.04,ESE,122,0.0,0.0,70,0.00,FEW,OVC,0.00,WeatherDisplay:10.37,2013-08-06 23:50:00,
2013-08-06 19:55:00,67.2,57.1,30.04,ESE,122,0.0,0.0,70,0.00,FEW,OVC,0.00,WeatherDisplay:10.37,2013-08-06 23:55:00,
2013-08-06 20:00:00,66.5,57.2,30.04,ESE,122,0.0,0.0,72,0.00,FEW,OVC,0.00,WeatherDisplay:10.37,2013-08-07 00:00:00,
2013-08-06 20:04:00,65.9,57.0,30.04,ESE,122,0.0,0.0,73,0.00,FEW,OVC,0.00,WeatherDisplay:10.37,2013-08-07 00:04:00,
2013-08-06 20:10:00,65.3,56.8,30.04,ESE,122,0.0,0.0,74,0.00,FEW,OVC,0.00,WeatherDisplay:10.37,2013-08-07 00:10:00,
2013-08-06 20:14:00,64.7,56.6,30.04,ESE,122,0.0,0.0,75,0.00,FEW,OVC,0.00,WeatherDisplay:10.37,2013-08-07 00:14:00,
2013-08-06 20:19:00,64.2,56.5,30.04,ESE,122,0.0,0.0,76,0.00,FEW,OVC,0.00,WeatherDisplay:10.37,2013-08-07 00:19:00,
2013-08-06 20:24:00,63.6,56.2,30.04,ESE,122,0.0,0.0,77,0.00,FEW,OVC,0.00,WeatherDisplay:10.37,2013-08-07 00:24:00,
2013-08-06 20:29:00,62.9,55.9,30.04,ESE,122,0.0,0.0,78,0.00,FEW,OVC,0.00,WeatherDisplay:10.37,2013-08-07 00:29:00,
2013-08-06 20:34:00,62.4,56.1,30.04,ESE,122,0.0,0.0,80,0.00,FEW,OVC,0.00,WeatherDisplay:10.37,2013-08-07 00:34:00,
2013-08-06 20:40:00,62.0,56.1,30.05,ESE,122,0.0,0.0,81,0.00,FEW,OVC,0.00,WeatherDisplay:10.37,2013-08-07 00:40:00,
2013-08-06 20:44:00,61.8,56.2,30.05,ESE,122,0.0,0.0,82,0.00,FEW,OVC,0.00,WeatherDisplay:10.37,2013-08-07 00:44:00,
2013-08-06 20:50:00,61.5,56.3,30.05,ESE,122,0.0,0.0,83,0.00,FEW,OVC,0.00,WeatherDisplay:10.37,2013-08-07 00:50:00,
2013-08-06 20:54:00,61.2,56.3,30.05,ESE,122,0.0,0.0,84,0.00,FEW,OVC,0.00,WeatherDisplay:10.37,2013-08-07 00:54:00,
2013-08-06 21:00:00,61.0,56.5,30.05,ESE,122,0.0,0.0,85,0.00,FEW,OVC,0.00,WeatherDisplay:10.37,2013-08-07 01:00:00,
2013-08-06 21:04:00,60.7,56.5,30.05,ESE,122,0.0,0.0,86,0.00,FEW,OVC,0.00,WeatherDisplay:10.37,2013-08-07 01:04:00,
2013-08-06 21:09:00,60.3,56.1,30.05,ESE,122,0.0,0.0,86,0.00,FEW,OVC,0.00,WeatherDisplay:10.37,2013-08-07 01:09:00,
2013-08-06 21:15:00,60.0,55.8,30.05,ESE,122,0.0,0.0,86,0.00,FEW,OVC,0.00,WeatherDisplay:10.37,2013-08-07 01:15:00,
2013-08-06 21:19:00,59.8,55.9,30.05,ESE,122,0.0,0.0,87,0.00,FEW,OVC,0.00,WeatherDisplay:10.37,2013-08-07 01:19:00,
2013-08-06 21:24:00,59.7,55.8,30.05,ESE,122,0.0,0.0,87,0.00,FEW,OVC,0.00,WeatherDisplay:10.37,2013-08-07 01:24:00,
2013-08-06 21:30:00,59.5,55.9,30.05,ESE,122,0.0,0.0,88,0.00,FEW,OVC,0.00,WeatherDisplay:10.37,2013-08-07 01:30:00,
2013-08-06 21:34:00,59.2,55.6,30.05,ESE,122,0.0,0.0,88,0.00,FEW,OVC,0.00,WeatherDisplay:10.37,2013-08-07 01:34:00,
2013-08-06 21:39:00,59.0,55.5,30.05,ESE,122,0.0,0.0,88,0.00,FEW,OVC,0.00,WeatherDisplay:10.37,2013-08-07 01:39:00,
2013-08-06 21:44:00,58.8,55.6,30.05,ESE,122,0.0,0.0,89,0.00,FEW,OVC,0.00,WeatherDisplay:10.37,2013-08-07 01:44:00,
2013-08-06 21:50:00,58.8,55.6,30.05,ESE,122,0.0,0.0,89,0.00,FEW,OVC,0.00,WeatherDisplay:10.37,2013-08-07 01:50:00,
2013-08-06 21:54:00,58.5,55.3,30.06,ESE,122,0.0,0.0,89,0.00,FEW,OVC,0.00,WeatherDisplay:10.37,2013-08-07 01:54:00,
2013-08-06 21:59:00,58.4,55.5,30.06,ESE,122,0.0,0.0,90,0.00,FEW,OVC,0.00,WeatherDisplay:10.37,2013-08-07 01:59:00,
2013-08-06 22:04:00,58.1,55.2,30.05,ESE,122,0.0,0.0,90,0.00,FEW,OVC,0.00,WeatherDisplay:10.37,2013-08-07 02:04:00,
2013-08-06 22:09:00,57.9,55.3,30.05,ESE,122,0.0,0.0,91,0.00,FEW,OVC,0.00,WeatherDisplay:10.37,2013-08-07 02:09:00,
2013-08-06 22:14:00,57.7,55.1,30.05,East,98,0.0,0.0,91,0.00,FEW,OVC,0.00,WeatherDisplay:10.37,2013-08-07 02:14:00,
2013-08-06 22:19:00,57.6,55.0,30.05,NE,41,0.0,0.0,91,0.00,FEW,OVC,0.00,WeatherDisplay:10.37,2013-08-07 02:19:00,
2013-08-06 22:24:00,57.4,54.8,30.05,NNE,27,0.0,0.0,91,0.00,FEW,OVC,0.00,WeatherDisplay:10.37,2013-08-07 02:24:00,
2013-08-06 22:29:00,57.1,54.5,30.05,NNE,26,0.0,0.0,91,0.00,FEW,OVC,0.00,WeatherDisplay:10.37,2013-08-07 02:29:00,
2013-08-06 22:34:00,56.9,54.6,30.05,NNE,25,0.0,0.0,92,0.00,FEW,OVC,0.00,WeatherDisplay:10.37,2013-08-07 02:34:00,
2013-08-06 22:40:00,56.9,54.6,30.05,NNE,25,0.0,0.0,92,0.00,FEW,OVC,0.00,WeatherDisplay:10.37,2013-08-07 02:40:00,
2013-08-06 22:49:00,56.7,54.4,30.05,NNE,25,0.0,0.0,92,0.00,FEW,OVC,0.00,WeatherDisplay:10.37,2013-08-07 02:49:00,
2013-08-06 22:54:00,56.7,54.4,30.05,NNE,25,0.0,0.0,92,0.00,FEW,OVC,0.00,WeatherDisplay:10.37,2013-08-07 02:54:00,
2013-08-06 22:59:00,56.8,54.5,30.05,NNE,25,0.0,0.0,92,0.00,FEW,OVC,0.00,WeatherDisplay:10.37,2013-08-07 02:59:00,
2013-08-06 23:04:00,56.7,54.4,30.05,NNE,25,0.0,0.0,92,0.00,FEW,OVC,0.00,WeatherDisplay:10.37,2013-08-07 03:04:00,
2013-08-06 23:09:00,56.6,54.3,30.05,NNE,25,0.0,0.0,92,0.00,FEW,OVC,0.00,WeatherDisplay:10.37,2013-08-07 03:09:00,
2013-08-06 23:14:00,56.5,54.2,30.05,NNE,25,0.0,0.0,92,0.00,FEW,OVC,0.00,WeatherDisplay:10.37,2013-08-07 03:14:00,
2013-08-06 23:19:00,56.4,54.1,30.05,NNE,25,0.0,0.0,92,0.00,FEW,OVC,0.00,WeatherDisplay:10.37,2013-08-07 03:19:00,
2013-08-06 23:24:00,56.4,54.4,30.05,NNE,25,0.0,0.0,93,0.00,FEW,OVC,0.00,WeatherDisplay:10.37,2013-08-07 03:24:00,
2013-08-06 23:29:00,56.3,54.0,30.05,NNE,25,0.0,0.0,92,0.00,FEW,OVC,0.00,WeatherDisplay:10.37,2013-08-07 03:29:00,
2013-08-06 23:34:00,56.3,54.3,30.05,NNE,25,0.0,0.0,93,0.00,FEW,OVC,0.00,WeatherDisplay:10.37,2013-08-07 03:34:00,
2013-08-06 23:39:00,56.2,54.2,30.05,NNE,25,0.0,0.0,93,0.00,FEW,OVC,0.00,WeatherDisplay:10.37,2013-08-07 03:39:00,
2013-08-06 23:44:00,56.1,54.1,30.05,NNE,25,0.0,0.0,93,0.00,FEW,OVC,0.00,WeatherDisplay:10.37,2013-08-07 03:44:00,
2013-08-06 23:49:00,56.0,54.0,30.05,NNE,19,0.0,2.0,93,0.00,FEW,OVC,0.00,WeatherDisplay:10.37,2013-08-07 03:49:00,
2013-08-06 23:54:00,56.2,54.2,30.05,North,353,0.0,0.0,93,0.00,FEW,OVC,0.00,WeatherDisplay:10.37,2013-08-07 03:54:00,
2013-08-06 23:59:00,56.2,54.2,30.05,NNW,347,0.0,0.0,93,0.00,FEW,OVC,0.00,WeatherDisplay:10.37,2013-08-07 03:59:00,